createdAt,value
2018-09-28T00:00:55.465Z,16.60
2018-09-28T00:03:24.092Z,16.60
2018-09-28T00:05:52.732Z,16.60
2018-09-28T00:08:21.390Z,16.50
2018-09-28T00:10:50.039Z,16.50
2018-09-28T00:13:18.704Z,16.50
2018-09-28T00:15:47.388Z,16.50
2018-09-28T00:18:16.046Z,16.50
2018-09-28T00:20:44.704Z,16.40
2018-09-28T00:23:13.372Z,16.40
2018-09-28T00:25:42.028Z,16.30
2018-09-28T00:28:10.817Z,16.30
2018-09-28T00:30:39.484Z,16.20
2018-09-28T00:33:08.137Z,16.30
2018-09-28T00:35:36.790Z,16.30
2018-09-28T00:38:05.493Z,16.20
2018-09-28T00:40:34.139Z,16.20
2018-09-28T00:43:02.800Z,16.20
2018-09-28T00:45:31.454Z,16.20
2018-09-28T00:48:00.117Z,16.10
2018-09-28T00:50:28.769Z,15.90
2018-09-28T00:52:57.421Z,15.90
2018-09-28T00:55:26.077Z,15.90
2018-09-28T00:57:54.723Z,15.80
2018-09-28T01:00:23.358Z,15.80
2018-09-28T01:02:52.022Z,15.80
2018-09-28T01:05:20.669Z,15.80
2018-09-28T01:07:49.318Z,15.70
2018-09-28T01:10:17.965Z,15.60
2018-09-28T01:12:46.615Z,15.60
2018-09-28T01:15:15.263Z,15.60
2018-09-28T01:17:43.983Z,15.50
2018-09-28T01:20:12.690Z,15.50
2018-09-28T01:22:41.334Z,15.50
2018-09-28T01:25:09.963Z,15.40
2018-09-28T01:27:38.611Z,15.40
2018-09-28T01:30:07.331Z,15.40
2018-09-28T01:32:35.948Z,15.30
2018-09-28T01:35:04.624Z,15.40
2018-09-28T01:37:33.287Z,15.40
2018-09-28T01:40:01.947Z,15.30
2018-09-28T01:42:30.612Z,15.20
2018-09-28T01:44:59.264Z,15.20
2018-09-28T01:47:27.946Z,15.20
2018-09-28T01:49:56.591Z,15.10
2018-09-28T01:52:25.252Z,15.10
2018-09-28T01:54:53.880Z,15.10
2018-09-28T01:57:22.540Z,15.10
2018-09-28T01:59:51.202Z,15.20
2018-09-28T02:02:19.930Z,15.10
2018-09-28T02:04:48.579Z,15.10
2018-09-28T02:07:17.234Z,15.00
2018-09-28T02:09:45.900Z,14.90
2018-09-28T02:12:14.569Z,14.90
2018-09-28T02:14:43.235Z,14.90
2018-09-28T02:17:11.864Z,14.90
2018-09-28T02:19:40.578Z,14.90
2018-09-28T02:22:09.224Z,14.80
2018-09-28T02:24:37.881Z,14.80
2018-09-28T02:27:06.918Z,14.70
2018-09-28T02:29:35.571Z,14.70
2018-09-28T02:32:04.232Z,14.70
2018-09-28T02:34:32.898Z,14.70
2018-09-28T02:37:01.542Z,14.70
2018-09-28T02:39:30.202Z,14.80
2018-09-28T02:41:58.853Z,14.70
2018-09-28T02:44:27.494Z,14.60
2018-09-28T02:46:56.193Z,14.60
2018-09-28T02:49:24.853Z,14.70
2018-09-28T02:51:53.515Z,14.60
2018-09-28T02:54:22.318Z,14.60
2018-09-28T02:56:51.037Z,14.60
2018-09-28T02:59:19.683Z,14.60
2018-09-28T03:01:48.319Z,14.60
2018-09-28T03:04:16.963Z,14.60
2018-09-28T03:06:45.629Z,14.50
2018-09-28T03:09:14.297Z,14.60
2018-09-28T03:11:42.967Z,14.50
2018-09-28T03:14:11.622Z,14.60
2018-09-28T03:16:40.293Z,14.60
2018-09-28T03:19:08.961Z,14.60
2018-09-28T03:21:37.604Z,14.60
2018-09-28T03:24:06.263Z,14.60
2018-09-28T03:26:35.437Z,14.70
2018-09-28T03:29:04.165Z,14.70
2018-09-28T03:31:32.819Z,14.70
2018-09-28T03:34:01.466Z,14.60
2018-09-28T03:36:30.111Z,14.70
2018-09-28T03:38:58.750Z,14.70
2018-09-28T03:41:27.424Z,14.60
2018-09-28T03:43:56.065Z,14.60
2018-09-28T03:46:24.731Z,14.60
2018-09-28T03:48:53.456Z,14.60
2018-09-28T03:51:22.204Z,14.60
2018-09-28T03:53:50.900Z,14.60
2018-09-28T03:56:19.549Z,14.50
2018-09-28T03:58:48.206Z,14.40
2018-09-28T04:01:16.846Z,14.30
2018-09-28T04:03:46.204Z,14.40
2018-09-28T04:06:14.936Z,14.50
2018-09-28T04:08:43.606Z,14.50
2018-09-28T04:11:12.393Z,14.50
2018-09-28T04:13:41.044Z,14.50
2018-09-28T04:16:09.717Z,14.50
2018-09-28T04:18:38.409Z,14.50
2018-09-28T04:21:07.070Z,14.40
2018-09-28T04:23:35.721Z,14.40
2018-09-28T04:26:04.419Z,14.30
2018-09-28T04:28:33.052Z,14.30
2018-09-28T04:31:01.733Z,14.40
2018-09-28T04:33:30.706Z,14.40
2018-09-28T04:35:59.395Z,14.40
2018-09-28T04:38:28.057Z,14.40
2018-09-28T04:40:56.688Z,14.30
2018-09-28T04:43:25.363Z,14.40
2018-09-28T04:45:54.021Z,14.30
2018-09-28T04:48:22.688Z,14.30
2018-09-28T04:50:51.328Z,14.30
2018-09-28T04:53:20.035Z,14.20
2018-09-28T04:55:48.744Z,14.20
2018-09-28T04:58:17.453Z,14.30
2018-09-28T05:00:46.129Z,14.30
2018-09-28T05:03:14.795Z,14.20
2018-09-28T05:05:43.448Z,14.20
2018-09-28T05:08:12.097Z,14.20
2018-09-28T05:10:40.890Z,14.10
2018-09-28T05:13:09.834Z,14.20
2018-09-28T05:15:38.521Z,14.10
2018-09-28T05:18:07.228Z,14.10
2018-09-28T05:20:36.013Z,14.10
2018-09-28T05:23:04.710Z,14.20
2018-09-28T05:25:33.414Z,14.30
2018-09-28T05:28:02.116Z,14.20
2018-09-28T05:30:30.838Z,14.30
2018-09-28T05:33:00.231Z,14.30
2018-09-28T05:35:28.950Z,14.40
2018-09-28T05:37:57.592Z,14.40
2018-09-28T05:40:26.276Z,14.50
2018-09-28T05:42:54.944Z,14.50
2018-09-28T05:45:23.625Z,14.50
2018-09-28T05:47:52.288Z,14.60
2018-09-28T05:50:20.944Z,14.60
2018-09-28T05:52:49.609Z,14.60
2018-09-28T05:55:18.316Z,14.60
2018-09-28T05:57:46.990Z,14.50
2018-09-28T06:00:21.232Z,14.60
2018-09-28T06:02:55.321Z,14.60
2018-09-28T06:05:36.169Z,14.60
2018-09-28T06:08:04.916Z,14.60
2018-09-28T06:10:33.606Z,14.60
2018-09-28T06:13:02.270Z,14.60
2018-09-28T06:15:31.058Z,14.60
2018-09-28T06:17:59.755Z,14.70
2018-09-28T06:20:28.332Z,14.60
2018-09-28T06:22:57.032Z,14.70
2018-09-28T06:25:25.678Z,14.60
2018-09-28T06:27:54.362Z,14.60
2018-09-28T06:30:23.014Z,14.60
2018-09-28T06:32:51.654Z,14.60
2018-09-28T06:35:20.353Z,14.60
2018-09-28T06:37:49.014Z,14.60
2018-09-28T06:40:17.811Z,14.60
2018-09-28T06:42:46.459Z,14.60
2018-09-28T06:45:15.183Z,14.60
2018-09-28T06:47:43.834Z,14.60
2018-09-28T06:50:12.511Z,14.60
2018-09-28T06:52:42.232Z,14.60
2018-09-28T06:55:10.906Z,14.60
2018-09-28T06:57:39.721Z,14.60
2018-09-28T07:00:09.012Z,14.60
2018-09-28T07:02:37.745Z,14.60
2018-09-28T07:05:06.433Z,14.60
2018-09-28T07:07:35.104Z,14.60
2018-09-28T07:10:03.771Z,14.70
2018-09-28T07:12:32.413Z,14.70
2018-09-28T07:15:01.498Z,14.70
2018-09-28T07:17:30.246Z,14.70
2018-09-28T07:19:58.891Z,14.60
2018-09-28T07:22:27.531Z,14.70
2018-09-28T07:24:56.290Z,14.70
2018-09-28T07:27:24.910Z,14.80
2018-09-28T07:29:53.587Z,14.80
2018-09-28T07:32:22.265Z,14.80
2018-09-28T07:34:51.022Z,14.90
2018-09-28T07:37:19.793Z,14.80
2018-09-28T07:39:48.384Z,14.80
2018-09-28T07:42:17.129Z,14.80
2018-09-28T07:44:45.788Z,14.80
2018-09-28T07:47:14.474Z,14.80
2018-09-28T07:49:43.122Z,14.90
2018-09-28T07:52:11.844Z,14.90
2018-09-28T07:54:40.483Z,15.00
2018-09-28T07:57:09.148Z,15.00
2018-09-28T07:59:37.813Z,15.00
2018-09-28T08:02:06.693Z,14.90
2018-09-28T08:04:35.432Z,14.90
2018-09-28T08:07:04.081Z,14.90
2018-09-28T08:09:32.848Z,14.90
2018-09-28T08:12:01.467Z,14.80
2018-09-28T08:14:30.129Z,14.90
2018-09-28T08:16:58.773Z,14.90
2018-09-28T08:19:27.427Z,14.90
2018-09-28T08:21:56.097Z,14.90
2018-09-28T08:24:24.763Z,15.00
2018-09-28T08:26:53.463Z,15.00
2018-09-28T08:29:22.119Z,15.00
2018-09-28T08:31:50.890Z,15.00
2018-09-28T08:34:19.705Z,15.00
2018-09-28T08:36:48.418Z,15.00
2018-09-28T08:39:17.029Z,15.10
2018-09-28T08:41:45.793Z,15.00
2018-09-28T08:44:14.423Z,15.00
2018-09-28T08:46:43.110Z,15.10
2018-09-28T08:49:11.814Z,15.10
2018-09-28T08:51:40.506Z,15.20
2018-09-28T08:54:09.155Z,15.30
2018-09-28T08:56:37.823Z,15.20
2018-09-28T08:59:06.522Z,15.20
2018-09-28T09:01:35.197Z,15.10
2018-09-28T09:04:03.876Z,15.20
2018-09-28T09:06:32.599Z,15.30
2018-09-28T09:09:01.269Z,15.30
2018-09-28T09:11:29.900Z,15.40
2018-09-28T09:13:58.553Z,15.40
2018-09-28T09:16:28.659Z,15.50
2018-09-28T09:18:57.427Z,15.50
2018-09-28T09:21:26.109Z,15.40
2018-09-28T09:23:54.917Z,15.40
2018-09-28T09:26:23.622Z,15.40
2018-09-28T09:28:52.280Z,15.30
2018-09-28T09:31:20.940Z,15.40
2018-09-28T09:33:49.649Z,15.50
2018-09-28T09:36:18.433Z,15.60
2018-09-28T09:38:47.134Z,15.70
2018-09-28T09:41:15.792Z,15.70
2018-09-28T09:43:44.448Z,15.70
2018-09-28T09:46:13.213Z,15.70
2018-09-28T09:48:41.910Z,15.70
2018-09-28T09:51:10.636Z,15.80
2018-09-28T09:53:39.296Z,15.80
2018-09-28T09:56:08.060Z,15.80
2018-09-28T09:58:36.764Z,15.80
2018-09-28T10:01:08.167Z,15.80
2018-09-28T10:03:42.274Z,15.80
2018-09-28T10:06:11.102Z,15.80
2018-09-28T10:08:39.782Z,15.80
2018-09-28T10:11:08.436Z,15.90
2018-09-28T10:13:37.099Z,15.90
2018-09-28T10:16:06.003Z,16.10
2018-09-28T10:18:34.766Z,16.20
2018-09-28T10:21:03.592Z,16.10
2018-09-28T10:23:32.369Z,16.20
2018-09-28T10:26:01.261Z,16.50
2018-09-28T10:28:30.050Z,16.70
2018-09-28T10:30:58.861Z,16.90
2018-09-28T10:33:27.892Z,17.00
2018-09-28T10:35:56.665Z,17.30
2018-09-28T10:38:25.413Z,17.50
2018-09-28T10:40:54.354Z,17.70
2018-09-28T10:43:23.089Z,18.10
2018-09-28T10:45:51.976Z,18.60
2018-09-28T10:48:20.855Z,18.90
2018-09-28T10:50:50.059Z,19.20
2018-09-28T10:53:18.783Z,19.20
2018-09-28T10:55:47.747Z,19.40
2018-09-28T10:58:16.547Z,19.60
2018-09-28T11:00:45.283Z,20.00
2018-09-28T11:03:13.971Z,20.10
2018-09-28T11:05:42.689Z,20.10
2018-09-28T11:08:11.734Z,20.10
2018-09-28T11:10:40.510Z,20.20
2018-09-28T11:13:09.327Z,20.60
2018-09-28T11:15:38.418Z,21.00
2018-09-28T11:18:07.319Z,21.10
2018-09-28T11:20:36.104Z,21.60
2018-09-28T11:23:04.793Z,21.60
2018-09-28T11:25:33.469Z,20.90
2018-09-28T11:28:02.126Z,20.00
2018-09-28T11:30:30.931Z,19.50
2018-09-28T11:32:59.802Z,19.10
2018-09-28T11:35:28.628Z,18.70
2018-09-28T11:37:57.549Z,18.40
2018-09-28T11:40:26.303Z,18.20
2018-09-28T11:42:54.975Z,18.20
2018-09-28T11:45:23.900Z,17.90
2018-09-28T11:47:52.519Z,17.80
2018-09-28T11:50:21.260Z,17.60
2018-09-28T11:52:49.974Z,17.40
2018-09-28T11:55:18.704Z,17.30
2018-09-28T11:57:47.407Z,17.30
2018-09-28T12:00:16.070Z,17.40
2018-09-28T12:02:44.785Z,17.30
2018-09-28T12:05:13.542Z,17.30
2018-09-28T12:07:42.212Z,17.20
2018-09-28T12:10:10.984Z,17.10
2018-09-28T12:12:39.827Z,17.10
2018-09-28T12:15:08.440Z,17.00
2018-09-28T12:17:37.214Z,17.00
2018-09-28T12:20:07.359Z,16.90
2018-09-28T12:22:36.018Z,17.00
2018-09-28T12:25:04.706Z,17.00
2018-09-28T12:27:33.398Z,17.00
2018-09-28T12:30:02.085Z,16.90
2018-09-28T12:32:31.100Z,16.90
2018-09-28T12:34:59.842Z,17.00
2018-09-28T12:37:28.521Z,17.10
2018-09-28T12:39:57.282Z,17.10
2018-09-28T12:42:26.021Z,17.10
2018-09-28T12:44:55.076Z,17.10
2018-09-28T12:47:23.691Z,17.00
2018-09-28T12:49:52.361Z,17.00
2018-09-28T12:52:21.077Z,17.00
2018-09-28T12:54:49.813Z,17.00
2018-09-28T12:57:18.631Z,16.90
2018-09-28T12:59:47.423Z,16.90
2018-09-28T13:02:16.237Z,16.90
2018-09-28T13:04:44.951Z,16.90
2018-09-28T13:07:13.691Z,16.90
2018-09-28T13:09:42.335Z,16.80
2018-09-28T13:12:11.142Z,16.80
2018-09-28T13:14:39.971Z,16.70
2018-09-28T13:17:08.551Z,16.70
2018-09-28T13:19:37.291Z,16.70
2018-09-28T13:22:05.960Z,16.70
2018-09-28T13:24:35.498Z,16.60
2018-09-28T13:27:04.212Z,16.60
2018-09-28T13:29:32.935Z,16.70
2018-09-28T13:32:01.580Z,16.60
2018-09-28T13:34:30.283Z,16.60
2018-09-28T13:36:58.997Z,16.60
2018-09-28T13:39:27.651Z,16.60
2018-09-28T13:41:56.544Z,16.60
2018-09-28T13:44:25.317Z,16.60
2018-09-28T13:46:54.067Z,16.70
2018-09-28T13:49:22.683Z,16.70
2018-09-28T13:51:51.464Z,16.70
2018-09-28T13:54:20.296Z,16.70
2018-09-28T13:56:49.264Z,16.70
2018-09-28T13:59:18.097Z,16.60
2018-09-28T14:01:46.804Z,16.60
2018-09-28T14:04:15.596Z,16.60
2018-09-28T14:06:44.276Z,16.50
2018-09-28T14:09:12.896Z,16.50
2018-09-28T14:11:41.593Z,16.50
2018-09-28T14:14:10.362Z,16.50
2018-09-28T14:16:39.117Z,16.50
2018-09-28T14:19:07.713Z,16.50
2018-09-28T14:21:36.531Z,16.50
2018-09-28T14:24:05.303Z,16.50
2018-09-28T14:26:34.013Z,16.50
2018-09-28T14:29:02.686Z,16.50
2018-09-28T14:31:31.375Z,16.50
2018-09-28T14:34:00.315Z,16.50
2018-09-28T14:36:28.986Z,16.40
2018-09-28T14:38:57.633Z,16.30
2018-09-28T14:41:26.325Z,16.30
2018-09-28T14:43:55.051Z,16.20
2018-09-28T14:46:23.751Z,16.20
2018-09-28T14:48:52.631Z,16.20
2018-09-28T14:51:21.104Z,16.20
2018-09-28T14:53:49.777Z,16.20
2018-09-28T14:56:18.514Z,16.20
2018-09-28T14:58:47.213Z,16.10
2018-09-28T15:01:15.919Z,16.10
2018-09-28T15:03:44.468Z,16.10
2018-09-28T15:06:13.283Z,16.10
2018-09-28T15:08:42.034Z,16.20
2018-09-28T15:11:10.681Z,16.20
2018-09-28T15:13:39.402Z,16.10
2018-09-28T15:16:21.123Z,16.10
2018-09-28T15:18:49.789Z,16.10
2018-09-28T15:21:18.396Z,16.00
2018-09-28T15:23:47.073Z,16.00
2018-09-28T15:26:15.724Z,16.00
2018-09-28T15:28:44.377Z,16.00
2018-09-28T15:31:13.072Z,15.90
2018-09-28T15:33:41.716Z,15.80
2018-09-28T15:36:10.386Z,15.90
2018-09-28T15:38:39.068Z,15.80
2018-09-28T15:41:07.728Z,15.80
2018-09-28T15:43:36.461Z,15.80
2018-09-28T15:46:05.190Z,15.70
2018-09-28T15:48:33.843Z,15.60
2018-09-28T15:51:02.524Z,15.70
2018-09-28T15:53:31.221Z,15.70
2018-09-28T15:55:59.884Z,15.70
2018-09-28T15:58:28.557Z,15.70
2018-09-28T16:00:57.250Z,15.70
2018-09-28T16:03:25.898Z,15.60
2018-09-28T16:05:54.586Z,15.60
2018-09-28T16:08:23.248Z,15.60
2018-09-28T16:10:51.915Z,15.50
2018-09-28T16:13:20.572Z,15.40
2018-09-28T16:15:49.277Z,15.40
2018-09-28T16:18:17.979Z,15.40
2018-09-28T16:20:46.699Z,15.40
2018-09-28T16:23:15.329Z,15.40
2018-09-28T16:25:44.042Z,15.30
2018-09-28T16:28:12.700Z,15.30
2018-09-28T16:30:41.391Z,15.30
2018-09-28T16:33:11.093Z,15.30
2018-09-28T16:35:39.800Z,15.30
2018-09-28T16:38:08.391Z,15.30
2018-09-28T16:40:37.072Z,15.30
2018-09-28T16:43:05.755Z,15.30
2018-09-28T16:45:34.465Z,15.30
2018-09-28T16:48:03.139Z,15.20
2018-09-28T16:50:31.856Z,15.20
2018-09-28T16:53:00.529Z,15.20
2018-09-28T16:55:29.255Z,15.20
2018-09-28T16:57:57.926Z,15.20
2018-09-28T17:00:26.584Z,15.10
2018-09-28T17:02:55.229Z,15.10
2018-09-28T17:05:23.910Z,15.10
2018-09-28T17:07:52.750Z,15.00
2018-09-28T17:10:21.422Z,14.90
2018-09-28T17:12:50.451Z,14.90
2018-09-28T17:15:19.194Z,14.90
2018-09-28T17:17:47.906Z,14.90
2018-09-28T17:20:16.526Z,14.90
2018-09-28T17:22:45.212Z,14.90
2018-09-28T17:25:15.230Z,14.80
2018-09-28T17:27:44.345Z,14.80
2018-09-28T17:30:14.089Z,14.80
2018-09-28T17:32:42.845Z,14.80
2018-09-28T17:35:11.523Z,14.70
2018-09-28T17:37:40.310Z,14.70
2018-09-28T17:40:08.941Z,14.70
2018-09-28T17:42:37.615Z,14.70
2018-09-28T17:45:06.551Z,14.70
2018-09-28T17:47:35.249Z,14.60
2018-09-28T17:50:03.940Z,14.70
2018-09-28T17:52:32.786Z,14.60
2018-09-28T17:55:01.449Z,14.60
2018-09-28T17:57:30.150Z,14.50
2018-09-28T17:59:58.795Z,14.50
2018-09-28T18:02:27.477Z,14.50
2018-09-28T18:04:56.116Z,14.40
2018-09-28T18:07:24.789Z,14.40
2018-09-28T18:09:53.443Z,14.40
2018-09-28T18:12:22.108Z,14.40
2018-09-28T18:14:50.793Z,14.40
2018-09-28T18:17:19.422Z,14.30
2018-09-28T18:19:48.144Z,14.20
2018-09-28T18:22:16.849Z,14.20
2018-09-28T18:24:45.427Z,14.20
2018-09-28T18:27:14.092Z,14.10
2018-09-28T18:29:42.728Z,14.20
2018-09-28T18:32:11.408Z,14.10
2018-09-28T18:34:40.105Z,14.10
2018-09-28T18:37:08.839Z,14.10
2018-09-28T18:39:37.467Z,14.00
2018-09-28T18:42:06.200Z,14.10
2018-09-28T18:44:34.770Z,14.00
2018-09-28T18:47:03.423Z,14.00
2018-09-28T18:49:32.092Z,14.00
2018-09-28T18:52:00.793Z,13.90
2018-09-28T18:54:29.415Z,13.80
2018-09-28T18:56:58.107Z,13.80
2018-09-28T18:59:26.728Z,13.70
2018-09-28T19:01:55.370Z,13.70
2018-09-28T19:04:24.078Z,13.70
2018-09-28T19:06:52.707Z,13.60
2018-09-28T19:09:21.382Z,13.60
2018-09-28T19:11:50.021Z,13.60
2018-09-28T19:14:25.174Z,13.70
2018-09-28T19:16:53.823Z,13.60
2018-09-28T19:19:22.554Z,13.60
2018-09-28T19:21:51.239Z,13.50
2018-09-28T19:24:19.942Z,13.60
2018-09-28T19:26:48.663Z,13.40
2018-09-28T19:29:17.294Z,13.40
2018-09-28T19:31:46.042Z,13.40
2018-09-28T19:34:14.664Z,13.40
2018-09-28T19:36:43.314Z,13.30
2018-09-28T19:39:12.002Z,13.30
2018-09-28T19:41:41.070Z,13.20
2018-09-28T19:44:10.165Z,13.30
2018-09-28T19:46:38.821Z,13.30
2018-09-28T19:49:07.454Z,13.20
2018-09-28T19:51:36.142Z,13.10
2018-09-28T19:54:04.816Z,13.10
2018-09-28T19:56:33.458Z,13.10
2018-09-28T19:59:02.120Z,13.10
2018-09-28T20:01:30.773Z,13.00
2018-09-28T20:03:59.431Z,13.10
2018-09-28T20:06:28.085Z,12.90
2018-09-28T20:08:56.842Z,13.00
2018-09-28T20:11:25.470Z,12.90
2018-09-28T20:13:54.132Z,12.90
2018-09-28T20:16:22.764Z,12.80
2018-09-28T20:18:51.418Z,12.80
2018-09-28T20:21:20.100Z,12.80
2018-09-28T20:23:48.739Z,12.80
2018-09-28T20:26:17.488Z,12.80
2018-09-28T20:28:46.132Z,12.70
2018-09-28T20:31:14.835Z,12.70
2018-09-28T20:33:43.480Z,12.70
2018-09-28T20:36:12.276Z,12.60
2018-09-28T20:38:40.905Z,12.60
2018-09-28T20:41:09.588Z,12.50
2018-09-28T20:43:38.223Z,12.40
2018-09-28T20:46:07.069Z,12.40
2018-09-28T20:48:35.739Z,12.40
2018-09-28T20:51:04.390Z,12.40
2018-09-28T20:53:32.998Z,12.30
2018-09-28T20:56:01.643Z,12.40
2018-09-28T20:58:30.333Z,12.30
2018-09-28T21:00:59.001Z,12.30
2018-09-28T21:03:27.636Z,12.30
2018-09-28T21:05:56.427Z,12.30
2018-09-28T21:08:25.072Z,12.20
2018-09-28T21:10:53.757Z,12.20
2018-09-28T21:13:22.536Z,12.20
2018-09-28T21:15:51.196Z,12.30
2018-09-28T21:18:19.858Z,12.20
2018-09-28T21:20:48.543Z,12.20
2018-09-28T21:23:17.208Z,12.10
2018-09-28T21:25:46.342Z,12.10
2018-09-28T21:28:15.096Z,12.00
2018-09-28T21:30:43.784Z,12.10
2018-09-28T21:33:12.433Z,12.10
2018-09-28T21:35:41.082Z,12.10
2018-09-28T21:38:09.813Z,12.10
2018-09-28T21:40:38.498Z,12.10
2018-09-28T21:43:07.333Z,12.10
2018-09-28T21:45:35.981Z,12.10
2018-09-28T21:48:04.638Z,12.00
2018-09-28T21:50:33.327Z,12.10
2018-09-28T21:53:02.011Z,12.00
2018-09-28T21:55:30.667Z,11.90
2018-09-28T21:57:59.333Z,11.90
2018-09-28T22:00:28.005Z,11.90
2018-09-28T22:02:57.025Z,12.00
2018-09-28T22:05:25.737Z,12.10
2018-09-28T22:07:54.389Z,12.00
2018-09-28T22:10:23.045Z,11.90
2018-09-28T22:12:51.687Z,11.90
2018-09-28T22:15:20.346Z,11.90
2018-09-28T22:17:49.019Z,11.90
2018-09-28T22:20:17.663Z,11.80
2018-09-28T22:22:46.375Z,11.90
2018-09-28T22:25:15.010Z,11.80
2018-09-28T22:27:43.675Z,11.80
2018-09-28T22:30:12.385Z,11.70
2018-09-28T22:32:41.140Z,11.60
2018-09-28T22:35:09.795Z,11.70
2018-09-28T22:37:38.486Z,11.60
2018-09-28T22:40:07.115Z,11.50
2018-09-28T22:42:35.799Z,11.50
2018-09-28T22:45:04.591Z,11.60
2018-09-28T22:47:33.277Z,11.70
2018-09-28T22:50:01.930Z,11.60
2018-09-28T22:52:31.944Z,11.50
2018-09-28T22:55:05.153Z,11.50
2018-09-28T22:57:33.805Z,11.50
2018-09-28T23:00:02.473Z,11.40
2018-09-28T23:02:31.117Z,11.40
2018-09-28T23:04:59.789Z,11.50
2018-09-28T23:07:28.434Z,11.50
2018-09-28T23:09:57.112Z,11.40
2018-09-28T23:12:25.766Z,11.40
2018-09-28T23:14:54.422Z,11.30
2018-09-28T23:17:23.066Z,11.40
2018-09-28T23:19:51.724Z,11.40
2018-09-28T23:22:20.460Z,11.40
2018-09-28T23:24:49.097Z,11.30
2018-09-28T23:27:17.755Z,11.30
2018-09-28T23:29:46.412Z,11.20
2018-09-28T23:32:15.050Z,11.20
2018-09-28T23:34:43.726Z,11.20
2018-09-28T23:37:12.391Z,11.10
2018-09-28T23:39:41.077Z,11.10
2018-09-28T23:42:09.714Z,11.10
2018-09-28T23:44:38.398Z,11.10
2018-09-28T23:47:07.040Z,11.00
2018-09-28T23:49:35.728Z,10.90
2018-09-28T23:52:04.396Z,11.00
2018-09-28T23:54:33.052Z,11.10
2018-09-28T23:57:01.716Z,11.00
2018-09-28T23:59:30.367Z,11.00
